Time;durP1;ratioP1;P1;durP2;ratioP2;P2;SDS_P1;SDS_P2;PMS_P1;PMS_P2;Temp;Humidity;BMP_temperature;BMP_pressure;BME280_temperature;BME280_humidity;BME280_pressure;Samples;Min_cycle;Max_cycle;Signal;HPM_P1;HPM_P2
2022/08/16 00:01:54;;;;;;;;;;;19.60;99.90;;;;;;5095890;28;19962;-64
2022/08/16 00:04:20;;;;;;;;;;;19.60;99.90;;;;;;5095835;28;20326;-63
2022/08/16 00:06:45;;;;;;;;;;;19.60;99.90;;;;;;5095771;28;19908;-64
2022/08/16 00:09:11;;;;;;;;;;;19.60;99.90;;;;;;5095449;28;19964;-63
2022/08/16 00:11:37;;;;;;;;;;;19.60;99.90;;;;;;5077642;28;19912;-64
2022/08/16 00:14:04;;;;;;;;;;;19.50;99.90;;;;;;5095652;28;20362;-64
2022/08/16 00:16:31;;;;;;;;;;;19.50;99.90;;;;;;5095535;28;20430;-63
2022/08/16 00:18:57;;;;;;;;;;;19.50;99.90;;;;;;5095083;28;20282;-63
2022/08/16 00:21:23;;;;;;;;;;;19.50;99.90;;;;;;5094709;28;19915;-64
2022/08/16 00:23:48;;;;;;;;;;;19.50;99.90;;;;;;5095154;28;20290;-63
2022/08/16 00:26:14;;;;;;;;;;;19.50;99.90;;;;;;5095139;28;19998;-63
2022/08/16 00:28:39;;;;;;;;;;;19.50;99.90;;;;;;5076857;28;19916;-63
2022/08/16 00:31:05;;;;;;;;;;;19.50;99.90;;;;;;5095038;28;19959;-64
2022/08/16 00:33:30;;;;;;;;;;;19.60;99.90;;;;;;5094991;28;19908;-64
2022/08/16 00:35:56;;;;;;;;;;;19.60;99.90;;;;;;5095170;28;19912;-63
2022/08/16 00:38:21;;;;;;;;;;;19.60;99.90;;;;;;5094867;28;19908;-63
2022/08/16 00:40:48;;;;;;;;;;;19.60;99.90;;;;;;5095105;28;19916;-64
2022/08/16 00:43:16;;;;;;;;;;;19.60;99.90;;;;;;5077019;28;19953;-63
2022/08/16 00:45:48;;;;;;;;;;;19.50;99.90;;;;;;5095022;28;19909;-64
2022/08/16 00:48:14;;;;;;;;;;;19.40;99.90;;;;;;5094670;28;19916;-63
2022/08/16 00:50:40;;;;;;;;;;;19.40;99.90;;;;;;5094656;28;19947;-64
2022/08/16 00:53:07;;;;;;;;;;;19.30;99.90;;;;;;5094868;28;20285;-64
2022/08/16 00:55:34;;;;;;;;;;;19.20;99.90;;;;;;5094581;28;19912;-64
2022/08/16 00:57:59;;;;;;;;;;;19.10;99.90;;;;;;5094528;28;19908;-64
2022/08/16 01:00:27;;;;;;;;;;;19.10;99.90;;;;;;5094470;28;20056;-64
2022/08/16 01:02:53;;;;;;;;;;;19.00;99.90;;;;;;5094757;28;19912;-64
2022/08/16 01:05:19;;;;;;;;;;;19.00;99.90;;;;;;5076349;28;19912;-63
2022/08/16 01:07:44;;;;;;;;;;;18.90;99.90;;;;;;5094372;28;19916;-63
2022/08/16 01:10:10;;;;;;;;;;;18.80;99.90;;;;;;5094339;28;19908;-63
2022/08/16 01:12:36;;;;;;;;;;;18.80;99.90;;;;;;5094544;28;19908;-64
2022/08/16 01:15:02;;;;;;;;;;;18.80;99.90;;;;;;5094360;28;20284;-63
2022/08/16 01:17:28;;;;;;;;;;;18.70;99.90;;;;;;5094166;28;19941;-63
2022/08/16 01:19:55;;;;;;;;;;;18.60;99.90;;;;;;5094186;28;19908;-64
2022/08/16 01:22:41;;;;;;;;;;;18.60;99.90;;;;;;5094385;28;19908;-64
2022/08/16 01:25:09;;;;;;;;;;;18.50;99.90;;;;;;5094128;28;19940;-64
2022/08/16 01:27:37;;;;;;;;;;;18.50;99.90;;;;;;5094163;28;19915;-64
2022/08/16 01:30:07;;;;;;;;;;;18.50;99.90;;;;;;5094022;28;19915;-64
2022/08/16 01:32:34;;;;;;;;;;;18.40;99.90;;;;;;5094040;28;19908;-64
2022/08/16 01:35:01;;;;;;;;;;;18.50;99.90;;;;;;5093989;28;19914;-63
2022/08/16 01:37:27;;;;;;;;;;;18.50;99.90;;;;;;5094146;28;19978;-64
2022/08/16 01:39:53;;;;;;;;;;;18.40;99.90;;;;;;5093880;28;19908;-64
2022/08/16 01:42:18;;;;;;;;;;;18.40;99.90;;;;;;5093895;28;19957;-64
2022/08/16 01:44:44;;;;;;;;;;;18.40;99.90;;;;;;5075875;28;19912;-64
2022/08/16 01:47:09;;;;;;;;;;;18.40;99.90;;;;;;5094068;28;19908;-64
2022/08/16 01:49:36;;;;;;;;;;;18.40;99.90;;;;;;5093772;28;20393;-63
2022/08/16 01:52:05;;;;;;;;;;;18.40;99.90;;;;;;5093753;28;20289;-62
2022/08/16 01:54:30;;;;;;;;;;;18.30;99.90;;;;;;5094163;28;19908;-63
2022/08/16 01:56:56;;;;;;;;;;;18.20;99.90;;;;;;5093438;28;19970;-63
2022/08/16 01:59:22;;;;;;;;;;;18.10;99.90;;;;;;5093727;28;19965;-63
2022/08/16 02:01:49;;;;;;;;;;;18.10;99.90;;;;;;5093600;28;19920;-63
2022/08/16 02:04:15;;;;;;;;;;;18.00;99.90;;;;;;5075573;28;19908;-63
2022/08/16 02:06:40;;;;;;;;;;;18.00;99.90;;;;;;5093906;28;19908;-62
2022/08/16 02:09:07;;;;;;;;;;;18.00;99.90;;;;;;5093571;28;19955;-62
2022/08/16 02:11:34;;;;;;;;;;;18.00;99.90;;;;;;5093819;28;20397;-62
2022/08/16 02:13:59;;;;;;;;;;;17.90;99.90;;;;;;5093797;28;19916;-62
2022/08/16 02:16:25;;;;;;;;;;;17.90;99.90;;;;;;5093705;28;19912;-62
2022/08/16 02:18:51;;;;;;;;;;;17.80;99.90;;;;;;5093434;28;19908;-62
2022/08/16 02:21:17;;;;;;;;;;;17.70;99.90;;;;;;5093721;28;20033;-62
2022/08/16 02:23:43;;;;;;;;;;;17.70;99.90;;;;;;5075844;28;20398;-62
2022/08/16 02:26:08;;;;;;;;;;;17.70;99.90;;;;;;5093672;28;19908;-62
2022/08/16 02:28:34;;;;;;;;;;;17.70;99.90;;;;;;5093681;28;19908;-64
2022/08/16 02:31:02;;;;;;;;;;;17.60;99.90;;;;;;5075422;28;20371;-63
2022/08/16 02:33:27;;;;;;;;;;;17.60;99.90;;;;;;5093630;28;20267;-62
2022/08/16 02:35:53;;;;;;;;;;;17.60;99.90;;;;;;5093524;28;19986;-62
2022/08/16 02:38:18;;;;;;;;;;;17.60;99.90;;;;;;5093369;28;19908;-63
2022/08/16 02:40:44;;;;;;;;;;;17.50;99.90;;;;;;5093554;28;19915;-63
2022/08/16 02:43:09;;;;;;;;;;;17.50;99.90;;;;;;5094780;28;20397;-65
2022/08/16 02:45:38;;;;;;;;;;;17.50;99.90;;;;;;5097351;28;20290;-63
2022/08/16 02:48:04;;;;;;;;;;;17.60;99.90;;;;;;5097098;28;20290;-62
2022/08/16 02:50:29;;;;;;;;;;;17.60;99.90;;;;;;5097079;28;19908;-63
2022/08/16 02:52:55;;;;;;;;;;;17.60;99.90;;;;;;5097215;28;20367;-63
2022/08/16 02:55:21;;;;;;;;;;;17.60;99.90;;;;;;5096916;28;19908;-63
2022/08/16 02:57:46;;;;;;;;;;;17.60;99.90;;;;;;5096651;28;19927;-63
2022/08/16 03:00:14;;;;;;;;;;;17.60;99.90;;;;;;5078626;28;19908;-63
2022/08/16 03:02:40;;;;;;;;;;;17.60;99.90;;;;;;5097058;28;19931;-63
2022/08/16 03:05:07;;;;;;;;;;;17.60;99.90;;;;;;5096763;28;20374;-63
2022/08/16 03:07:32;;;;;;;;;;;17.60;99.90;;;;;;5096971;28;19915;-63
2022/08/16 03:09:58;;;;;;;;;;;17.60;99.90;;;;;;5096914;28;19908;-63
2022/08/16 03:12:24;;;;;;;;;;;17.60;99.90;;;;;;5096626;28;19912;-63
2022/08/16 03:14:50;;;;;;;;;;;17.60;99.90;;;;;;5096848;28;19908;-63
2022/08/16 03:17:16;;;;;;;;;;;17.50;99.90;;;;;;5096454;28;20327;-63
2022/08/16 03:19:42;;;;;;;;;;;17.50;99.90;;;;;;5096682;28;19954;-63
2022/08/16 03:22:07;;;;;;;;;;;17.40;99.90;;;;;;5096454;28;19972;-63
2022/08/16 03:24:33;;;;;;;;;;;17.40;99.90;;;;;;5096623;28;19915;-63
2022/08/16 03:26:59;;;;;;;;;;;17.40;99.90;;;;;;5096286;28;19908;-63
2022/08/16 03:29:26;;;;;;;;;;;17.40;99.90;;;;;;5096502;28;19960;-63
2022/08/16 03:31:52;;;;;;;;;;;17.40;99.90;;;;;;5096471;28;20362;-63
2022/08/16 03:34:17;;;;;;;;;;;17.40;99.90;;;;;;5096404;28;19912;-63
2022/08/16 03:36:42;;;;;;;;;;;17.40;99.90;;;;;;5096062;28;19916;-63
2022/08/16 03:39:08;;;;;;;;;;;17.30;99.90;;;;;;5096345;28;19908;-63
2022/08/16 03:41:33;;;;;;;;;;;17.30;99.90;;;;;;5078066;28;19908;-63
2022/08/16 03:43:59;;;;;;;;;;;17.30;99.90;;;;;;5095982;28;20309;-62
2022/08/16 03:46:24;;;;;;;;;;;17.30;99.90;;;;;;5095991;28;19999;-62
2022/08/16 03:48:50;;;;;;;;;;;17.20;99.90;;;;;;5096183;28;19908;-63
2022/08/16 03:51:16;;;;;;;;;;;17.20;99.90;;;;;;5096114;28;20290;-63
2022/08/16 03:53:42;;;;;;;;;;;17.20;99.90;;;;;;5095604;28;19915;-63
2022/08/16 03:56:09;;;;;;;;;;;17.20;99.90;;;;;;5095436;28;19921;-63
2022/08/16 03:58:35;;;;;;;;;;;17.10;99.90;;;;;;5095736;28;19908;-63
2022/08/16 04:01:00;;;;;;;;;;;17.10;99.90;;;;;;5095942;28;20389;-63
2022/08/16 04:03:27;;;;;;;;;;;17.00;99.90;;;;;;5095586;28;19908;-63
2022/08/16 04:05:52;;;;;;;;;;;17.00;99.90;;;;;;5077872;28;19931;-63
2022/08/16 04:08:20;;;;;;;;;;;17.00;99.90;;;;;;5095510;28;20374;-63
2022/08/16 04:10:46;;;;;;;;;;;17.00;99.90;;;;;;5077692;28;19912;-63
2022/08/16 04:13:12;;;;;;;;;;;17.00;99.90;;;;;;5095406;28;19969;-63
2022/08/16 04:15:37;;;;;;;;;;;17.00;99.90;;;;;;5095614;28;19916;-63
2022/08/16 04:18:03;;;;;;;;;;;17.00;99.90;;;;;;5095330;28;20336;-63
2022/08/16 04:20:29;;;;;;;;;;;17.10;99.90;;;;;;5095517;28;20431;-62
2022/08/16 04:22:56;;;;;;;;;;;17.20;99.90;;;;;;5095505;28;19916;-62
2022/08/16 04:25:22;;;;;;;;;;;17.20;99.90;;;;;;5095467;28;19908;-63
2022/08/16 04:27:48;;;;;;;;;;;17.40;99.90;;;;;;5095365;28;19919;-62
2022/08/16 04:30:15;;;;;;;;;;;17.50;99.90;;;;;;5095365;28;19915;-63
2022/08/16 04:32:41;;;;;;;;;;;17.60;99.90;;;;;;5095039;28;19909;-62
2022/08/16 04:35:09;;;;;;;;;;;17.70;99.90;;;;;;5095220;28;20353;-62
2022/08/16 04:37:34;;;;;;;;;;;17.80;99.90;;;;;;5094976;28;19959;-63
2022/08/16 04:40:00;;;;;;;;;;;17.90;99.90;;;;;;5094910;28;19908;-63
2022/08/16 04:42:26;;;;;;;;;;;18.00;99.90;;;;;;5095060;28;20040;-62
2022/08/16 04:44:52;;;;;;;;;;;18.10;99.90;;;;;;5095055;28;20010;-63
2022/08/16 04:47:17;;;;;;;;;;;18.20;99.90;;;;;;5077062;28;19912;-62
2022/08/16 04:49:43;;;;;;;;;;;18.30;99.90;;;;;;5076883;28;19909;-63
2022/08/16 04:52:08;;;;;;;;;;;18.40;99.90;;;;;;5076619;28;19908;-63
2022/08/16 04:54:34;;;;;;;;;;;18.50;99.90;;;;;;5094782;28;19908;-63
2022/08/16 04:57:00;;;;;;;;;;;18.50;99.90;;;;;;5094339;28;19920;-63
2022/08/16 04:59:25;;;;;;;;;;;18.50;99.90;;;;;;5094871;28;19976;-63
2022/08/16 05:01:55;;;;;;;;;;;18.50;99.90;;;;;;5094744;28;19948;-63
2022/08/16 05:04:22;;;;;;;;;;;18.60;99.90;;;;;;5094663;28;19908;-63
2022/08/16 05:06:48;;;;;;;;;;;18.50;99.90;;;;;;5094160;28;20001;-63
2022/08/16 05:09:13;;;;;;;;;;;18.50;99.90;;;;;;5094596;28;19915;-63
2022/08/16 05:11:39;;;;;;;;;;;18.50;99.90;;;;;;5094312;28;19908;-63
2022/08/16 05:14:04;;;;;;;;;;;18.50;99.90;;;;;;5094328;28;19908;-63
2022/08/16 05:16:30;;;;;;;;;;;18.50;99.90;;;;;;5094107;28;20014;-63
2022/08/16 05:18:57;;;;;;;;;;;18.40;99.90;;;;;;5094451;28;19908;-62
2022/08/16 05:21:23;;;;;;;;;;;18.40;99.90;;;;;;5094396;28;20034;-63
2022/08/16 05:23:49;;;;;;;;;;;18.40;99.90;;;;;;5076084;28;20388;-63
2022/08/16 05:26:15;;;;;;;;;;;18.40;99.90;;;;;;5094377;28;19908;-63
2022/08/16 05:28:40;;;;;;;;;;;18.40;99.90;;;;;;5094061;28;19908;-63
2022/08/16 05:31:06;;;;;;;;;;;18.40;99.90;;;;;;5094230;28;19965;-63
2022/08/16 05:33:31;;;;;;;;;;;18.50;99.90;;;;;;5093927;28;20366;-63
2022/08/16 05:35:56;;;;;;;;;;;18.50;99.90;;;;;;5093868;28;19912;-63
2022/08/16 05:38:26;;;;;;;;;;;18.60;99.90;;;;;;5093919;28;19916;-63
2022/08/16 05:40:53;;;;;;;;;;;18.70;99.90;;;;;;5094128;28;19920;-62
2022/08/16 05:43:19;;;;;;;;;;;18.80;99.90;;;;;;5094084;28;20385;-63
2022/08/16 05:45:44;;;;;;;;;;;18.90;99.90;;;;;;5094111;28;19908;-63
2022/08/16 05:48:10;;;;;;;;;;;19.20;99.90;;;;;;5094009;28;20353;-63
2022/08/16 05:50:35;;;;;;;;;;;20.00;99.90;;;;;;5094022;28;19908;-63
2022/08/16 05:53:01;;;;;;;;;;;20.90;99.90;;;;;;5093962;28;19908;-63
2022/08/16 05:55:26;;;;;;;;;;;21.90;99.90;;;;;;5093983;28;19908;-63
2022/08/16 05:57:52;;;;;;;;;;;23.40;99.90;;;;;;5093304;28;19921;-64
2022/08/16 06:00:17;;;;;;;;;;;24.80;99.90;;;;;;5095235;28;19916;-65
2022/08/16 06:02:43;;;;;;;;;;;25.50;99.90;;;;;;5111764;28;20014;-64
2022/08/16 06:05:09;;;;;;;;;;;25.80;99.90;;;;;;5113922;28;19907;-64
2022/08/16 06:07:34;;;;;;;;;;;26.10;99.90;;;;;;5114195;28;19943;-63
2022/08/16 06:10:00;;;;;;;;;;;25.70;99.90;;;;;;5113877;28;20370;-63
2022/08/16 06:12:26;;;;;;;;;;;25.30;99.90;;;;;;5096519;28;19913;-63
2022/08/16 06:14:52;;;;;;;;;;;25.00;99.90;;;;;;5102197;28;19965;-63
2022/08/16 06:17:18;;;;;;;;;;;25.30;99.90;;;;;;5108322;28;19924;-63
2022/08/16 06:19:43;;;;;;;;;;;25.20;99.90;;;;;;5109783;28;19948;-63
2022/08/16 06:22:09;;;;;;;;;;;25.60;99.90;;;;;;5104915;28;19912;-63
2022/08/16 06:24:35;;;;;;;;;;;25.40;99.90;;;;;;5097972;28;19958;-62
2022/08/16 06:27:00;;;;;;;;;;;25.20;99.90;;;;;;5098342;28;20343;-63
2022/08/16 06:29:26;;;;;;;;;;;25.90;99.90;;;;;;5097669;28;19916;-63
2022/08/16 06:31:51;;;;;;;;;;;26.50;99.90;;;;;;5097616;28;19915;-63
2022/08/16 06:34:17;;;;;;;;;;;26.70;99.90;;;;;;5097573;28;19931;-63
2022/08/16 06:36:42;;;;;;;;;;;26.30;99.90;;;;;;5113673;28;20426;-62
2022/08/16 06:39:08;;;;;;;;;;;26.40;99.90;;;;;;5117706;28;20386;-64
2022/08/16 06:41:33;;;;;;;;;;;26.40;99.90;;;;;;5117818;28;19908;-64
2022/08/16 06:44:00;;;;;;;;;;;26.60;99.90;;;;;;5117759;28;19907;-63
2022/08/16 06:46:27;;;;;;;;;;;26.80;99.90;;;;;;5103373;28;20365;-63
2022/08/16 06:48:53;;;;;;;;;;;26.60;99.90;;;;;;5097268;28;19908;-63
2022/08/16 06:51:19;;;;;;;;;;;26.90;99.90;;;;;;5096929;28;19920;-63
2022/08/16 06:53:45;;;;;;;;;;;26.80;99.90;;;;;;5097024;28;19919;-63
2022/08/16 06:56:10;;;;;;;;;;;26.90;99.90;;;;;;5082804;28;19927;-64
2022/08/16 06:58:36;;;;;;;;;;;27.10;99.90;;;;;;5099561;28;19916;-63
2022/08/16 07:01:01;;;;;;;;;;;26.40;99.90;;;;;;5098981;28;19912;-64
2022/08/16 07:03:28;;;;;;;;;;;26.30;99.90;;;;;;5091087;28;20287;-64
2022/08/16 07:05:55;;;;;;;;;;;25.40;99.90;;;;;;5096545;28;19961;-64
2022/08/16 07:08:22;;;;;;;;;;;26.10;99.90;;;;;;5068446;28;20381;-64
2022/08/16 07:10:48;;;;;;;;;;;26.50;99.90;;;;;;5103666;28;20058;-65
2022/08/16 07:13:14;;;;;;;;;;;26.80;99.90;;;;;;5096613;28;19950;-64
2022/08/16 07:15:41;;;;;;;;;;;26.80;99.90;;;;;;5096535;28;19908;-64
2022/08/16 07:18:06;;;;;;;;;;;27.00;99.90;;;;;;5098701;28;20394;-64
2022/08/16 07:20:32;;;;;;;;;;;26.80;99.90;;;;;;5106205;28;19983;-64
2022/08/16 07:22:57;;;;;;;;;;;26.80;99.90;;;;;;5096534;28;19922;-64
2022/08/16 07:25:23;;;;;;;;;;;27.40;99.90;;;;;;5078128;28;19915;-64
2022/08/16 07:27:49;;;;;;;;;;;27.70;99.90;;;;;;5096349;28;19915;-65
2022/08/16 07:30:15;;;;;;;;;;;27.90;99.50;;;;;;5095898;28;19958;-64
2022/08/16 07:32:41;;;;;;;;;;;27.70;99.90;;;;;;5100186;28;19934;-64
2022/08/16 07:35:07;;;;;;;;;;;27.40;99.90;;;;;;5097000;28;19912;-64
2022/08/16 07:37:32;;;;;;;;;;;27.70;99.90;;;;;;5095861;28;19912;-63
2022/08/16 07:39:58;;;;;;;;;;;27.60;99.90;;;;;;5096221;28;20410;-64
2022/08/16 07:42:23;;;;;;;;;;;28.20;99.90;;;;;;5110186;28;19912;-64
2022/08/16 07:44:49;;;;;;;;;;;29.10;98.40;;;;;;5116454;28;19908;-64
2022/08/16 07:47:14;;;;;;;;;;;29.20;97.40;;;;;;5110357;28;20370;-65
2022/08/16 07:49:40;;;;;;;;;;;29.60;96.60;;;;;;5108746;28;21479;-64
2022/08/16 07:52:06;;;;;;;;;;;29.40;96.50;;;;;;5090812;28;20006;-63
2022/08/16 07:54:31;;;;;;;;;;;29.40;96.70;;;;;;5099630;28;19912;-64
2022/08/16 07:56:57;;;;;;;;;;;28.50;97.20;;;;;;5101590;28;19924;-63
2022/08/16 07:59:23;;;;;;;;;;;28.30;97.80;;;;;;5096029;28;19908;-64
2022/08/16 08:01:50;;;;;;;;;;;28.70;97.40;;;;;;5096041;28;20270;-64
2022/08/16 08:04:16;;;;;;;;;;;29.10;97.10;;;;;;5077347;28;19915;-64
2022/08/16 08:06:42;;;;;;;;;;;30.00;95.70;;;;;;5096701;28;20390;-65
2022/08/16 08:09:07;;;;;;;;;;;29.70;95.30;;;;;;5100485;28;19923;-65
2022/08/16 08:11:33;;;;;;;;;;;29.20;95.80;;;;;;5110452;28;19930;-64
2022/08/16 08:13:59;;;;;;;;;;;29.50;95.60;;;;;;5095303;28;19908;-65
2022/08/16 08:16:25;;;;;;;;;;;29.50;95.50;;;;;;5095143;28;19918;-64
2022/08/16 08:18:53;;;;;;;;;;;29.70;94.90;;;;;;5095142;28;19908;-64
2022/08/16 08:21:20;;;;;;;;;;;29.80;95.00;;;;;;5077491;28;19908;-64
2022/08/16 08:23:46;;;;;;;;;;;30.30;94.30;;;;;;5115830;28;20002;-64
2022/08/16 08:26:12;;;;;;;;;;;30.30;93.80;;;;;;5115747;28;19908;-64
2022/08/16 08:28:37;;;;;;;;;;;31.10;93.10;;;;;;5115398;28;19923;-64
2022/08/16 08:31:03;;;;;;;;;;;30.70;92.70;;;;;;5115712;28;19914;-64
2022/08/16 08:33:30;;;;;;;;;;;30.60;92.60;;;;;;5096473;28;19912;-65
2022/08/16 08:35:57;;;;;;;;;;;30.30;93.00;;;;;;5076692;28;20347;-64
2022/08/16 08:38:24;;;;;;;;;;;31.10;92.80;;;;;;5094923;28;19915;-64
2022/08/16 08:40:49;;;;;;;;;;;31.40;91.90;;;;;;5076382;28;19908;-64
2022/08/16 08:43:16;;;;;;;;;;;30.40;91.90;;;;;;5111171;28;19912;-64
2022/08/16 08:45:41;;;;;;;;;;;30.00;92.90;;;;;;5115399;28;19912;-64
2022/08/16 08:48:07;;;;;;;;;;;31.30;92.70;;;;;;5115397;28;20157;-64
2022/08/16 08:50:33;;;;;;;;;;;31.30;91.90;;;;;;5115097;28;19911;-65
2022/08/16 08:53:00;;;;;;;;;;;31.40;90.40;;;;;;5101075;28;19919;-64
2022/08/16 08:55:26;;;;;;;;;;;31.40;90.50;;;;;;5094491;28;19915;-64
2022/08/16 08:57:52;;;;;;;;;;;31.00;91.10;;;;;;5094267;28;19927;-65
2022/08/16 09:00:19;;;;;;;;;;;31.60;90.50;;;;;;5114537;28;20010;-64
2022/08/16 09:02:45;;;;;;;;;;;31.60;87.80;;;;;;5114795;28;19908;-64
2022/08/16 09:05:12;;;;;;;;;;;31.60;88.30;;;;;;5115004;28;19908;-65
2022/08/16 09:07:37;;;;;;;;;;;31.60;86.50;;;;;;5115036;28;19918;-64
2022/08/16 09:10:04;;;;;;;;;;;32.00;88.70;;;;;;5096694;28;19908;-64
2022/08/16 09:12:30;;;;;;;;;;;32.50;85.50;;;;;;5094320;28;19919;-64
2022/08/16 09:14:55;;;;;;;;;;;32.00;85.90;;;;;;5094215;28;19908;-64
2022/08/16 09:17:21;;;;;;;;;;;32.40;84.10;;;;;;5094397;28;19912;-64
2022/08/16 09:19:46;;;;;;;;;;;32.50;83.80;;;;;;5109238;28;20366;-65
2022/08/16 09:22:12;;;;;;;;;;;34.20;81.00;;;;;;5114444;28;19912;-65
2022/08/16 09:24:37;;;;;;;;;;;33.80;79.30;;;;;;5114410;28;19918;-65
2022/08/16 09:27:03;;;;;;;;;;;33.10;80.30;;;;;;5114443;28;19908;-64
2022/08/16 09:29:29;;;;;;;;;;;32.70;83.40;;;;;;5101952;28;20366;-65
2022/08/16 09:31:56;;;;;;;;;;;32.70;81.90;;;;;;5101365;28;20377;-65
2022/08/16 09:34:22;;;;;;;;;;;32.60;82.70;;;;;;5103555;28;19915;-64
2022/08/16 09:36:47;;;;;;;;;;;33.60;80.50;;;;;;5094073;28;19916;-64
2022/08/16 09:39:13;;;;;;;;;;;32.60;80.40;;;;;;5103712;28;20304;-64
2022/08/16 09:41:39;;;;;;;;;;;32.20;82.90;;;;;;5114467;28;19954;-65
2022/08/16 09:44:05;;;;;;;;;;;31.70;84.00;;;;;;5114035;28;19908;-65
2022/08/16 09:46:31;;;;;;;;;;;31.60;85.80;;;;;;5114396;28;19908;-65
2022/08/16 09:48:57;;;;;;;;;;;31.50;84.90;;;;;;5106550;28;19935;-65
2022/08/16 09:51:25;;;;;;;;;;;32.50;82.90;;;;;;5075727;28;19912;-65
2022/08/16 09:53:51;;;;;;;;;;;32.30;82.10;;;;;;5093825;28;19908;-65
2022/08/16 09:56:33;;;;;;;;;;;32.50;81.20;;;;;;5093355;28;19965;-65
2022/08/16 09:58:59;;;;;;;;;;;32.40;82.50;;;;;;5100326;28;19916;-65
2022/08/16 10:01:25;;;;;;;;;;;32.50;81.30;;;;;;5114203;28;19915;-65
2022/08/16 10:03:51;;;;;;;;;;;32.40;82.00;;;;;;5114165;28;19908;-65
2022/08/16 10:06:17;;;;;;;;;;;32.70;79.60;;;;;;5112227;28;19919;-65
2022/08/16 10:08:44;;;;;;;;;;;32.60;77.50;;;;;;5077369;28;19908;-65
2022/08/16 10:13:55;;;;;;;;;;;31.80;79.70;;;;;;5096453;28;19970;-65
2022/08/16 10:16:20;;;;;;;;;;;31.20;81.30;;;;;;5092179;28;19959;-64
2022/08/16 10:18:46;;;;;;;;;;;31.20;83.60;;;;;;5093552;28;20313;-64
2022/08/16 10:21:15;;;;;;;;;;;31.10;82.80;;;;;;5075148;28;19916;-66
2022/08/16 10:23:41;;;;;;;;;;;32.20;82.90;;;;;;5099052;28;19912;-64
2022/08/16 10:26:06;;;;;;;;;;;32.20;78.30;;;;;;5099148;28;20259;-64
2022/08/16 10:28:32;;;;;;;;;;;31.70;80.50;;;;;;5093565;28;19914;-63
2022/08/16 10:30:59;;;;;;;;;;;32.60;77.80;;;;;;5093566;28;20019;-64
2022/08/16 10:33:26;;;;;;;;;;;32.60;78.00;;;;;;5100673;28;20014;-64
2022/08/16 10:35:51;;;;;;;;;;;32.40;77.40;;;;;;5113723;28;19912;-64
2022/08/16 10:38:17;;;;;;;;;;;33.40;76.70;;;;;;5095523;28;19960;-64
2022/08/16 10:40:43;;;;;;;;;;;33.50;74.80;;;;;;5113762;28;19915;-64
2022/08/16 10:43:08;;;;;;;;;;;33.50;75.10;;;;;;5112343;28;19960;-64
2022/08/16 10:45:34;;;;;;;;;;;32.60;75.40;;;;;;5093090;28;19912;-64
2022/08/16 10:47:59;;;;;;;;;;;32.70;77.80;;;;;;5093055;28;20006;-64
2022/08/16 10:50:25;;;;;;;;;;;33.00;75.70;;;;;;5093228;28;19908;-64
2022/08/16 10:52:52;;;;;;;;;;;33.00;75.90;;;;;;5093114;28;19912;-64
2022/08/16 10:55:18;;;;;;;;;;;33.30;76.30;;;;;;5111953;28;19912;-64
2022/08/16 10:57:43;;;;;;;;;;;33.30;73.30;;;;;;5113225;28;19920;-64
2022/08/16 11:00:11;;;;;;;;;;;32.60;74.00;;;;;;5113311;28;19908;-64
2022/08/16 11:02:37;;;;;;;;;;;32.10;75.30;;;;;;5113291;28;19911;-64
2022/08/16 11:05:04;;;;;;;;;;;31.80;77.10;;;;;;5115819;28;19944;-64
2022/08/16 11:07:29;;;;;;;;;;;31.30;75.80;;;;;;5117153;28;20419;-65
2022/08/16 11:09:57;;;;;;;;;;;30.80;76.70;;;;;;5098648;28;19912;-64
2022/08/16 11:12:22;;;;;;;;;;;31.30;75.50;;;;;;5112153;28;20014;-65
2022/08/16 11:14:48;;;;;;;;;;;31.60;75.40;;;;;;5106155;28;20365;-64
2022/08/16 11:17:13;;;;;;;;;;;31.10;76.90;;;;;;5101081;28;19920;-64
2022/08/16 11:19:40;;;;;;;;;;;30.70;77.20;;;;;;5096490;28;19908;-64
2022/08/16 11:22:06;;;;;;;;;;;30.40;77.30;;;;;;5096368;28;19978;-65
2022/08/16 11:24:32;;;;;;;;;;;30.00;78.60;;;;;;5096666;28;20381;-65
2022/08/16 11:26:58;;;;;;;;;;;30.50;80.60;;;;;;5096407;28;20003;-65
2022/08/16 11:29:24;;;;;;;;;;;30.60;80.00;;;;;;5096216;28;20060;-65
2022/08/16 11:31:49;;;;;;;;;;;31.10;78.30;;;;;;5097308;28;19916;-65
2022/08/16 11:34:15;;;;;;;;;;;31.80;78.30;;;;;;5097278;28;19951;-65
2022/08/16 11:36:40;;;;;;;;;;;31.80;76.90;;;;;;5096121;28;19959;-65
2022/08/16 11:39:06;;;;;;;;;;;31.30;75.80;;;;;;5097474;28;19962;-64
2022/08/16 11:41:34;;;;;;;;;;;31.20;75.70;;;;;;5081641;28;19912;-64
2022/08/16 11:44:00;;;;;;;;;;;30.90;76.70;;;;;;5078521;28;19908;-64
2022/08/16 11:46:26;;;;;;;;;;;31.50;76.40;;;;;;5096661;28;19911;-64
2022/08/16 11:48:51;;;;;;;;;;;31.20;75.30;;;;;;5116517;28;19907;-64
2022/08/16 11:51:17;;;;;;;;;;;31.10;75.60;;;;;;5113658;28;19988;-64
2022/08/16 11:53:42;;;;;;;;;;;31.50;74.50;;;;;;5097804;28;20022;-64
2022/08/16 11:56:08;;;;;;;;;;;31.40;71.80;;;;;;5107519;28;19968;-64
2022/08/16 11:58:33;;;;;;;;;;;31.20;72.50;;;;;;5109891;28;19960;-64
2022/08/16 12:00:59;;;;;;;;;;;31.30;73.40;;;;;;5115867;28;19931;-65
2022/08/16 12:03:26;;;;;;;;;;;31.10;73.30;;;;;;5097311;28;20367;-65
2022/08/16 12:05:52;;;;;;;;;;;31.00;74.60;;;;;;5095494;28;19908;-64
2022/08/16 12:08:19;;;;;;;;;;;31.00;73.20;;;;;;5112246;28;19915;-65
2022/08/16 12:10:45;;;;;;;;;;;30.90;70.90;;;;;;5097334;28;20348;-64
2022/08/16 12:13:11;;;;;;;;;;;30.80;72.70;;;;;;5115293;28;19907;-64
2022/08/16 12:15:37;;;;;;;;;;;31.10;74.20;;;;;;5115706;28;20390;-64
2022/08/16 12:18:03;;;;;;;;;;;31.20;72.90;;;;;;5101017;28;19916;-64
2022/08/16 12:20:30;;;;;;;;;;;31.40;72.50;;;;;;5095495;28;19947;-65
2022/08/16 12:22:56;;;;;;;;;;;31.20;70.70;;;;;;5095253;28;19915;-64
2022/08/16 12:25:23;;;;;;;;;;;31.20;69.10;;;;;;5095447;28;19908;-64
2022/08/16 12:27:49;;;;;;;;;;;31.40;69.40;;;;;;5107400;28;19916;-65
2022/08/16 12:30:17;;;;;;;;;;;31.20;69.40;;;;;;5115745;28;19915;-65
2022/08/16 12:32:43;;;;;;;;;;;31.70;70.30;;;;;;5115726;28;20384;-65
2022/08/16 12:35:11;;;;;;;;;;;31.70;69.80;;;;;;5115644;28;20002;-64
2022/08/16 12:37:36;;;;;;;;;;;31.70;70.60;;;;;;5105210;28;19981;-65
2022/08/16 12:40:03;;;;;;;;;;;31.60;67.60;;;;;;5094854;28;19947;-64
2022/08/16 12:42:30;;;;;;;;;;;31.70;67.90;;;;;;5094835;28;19919;-64
2022/08/16 12:44:55;;;;;;;;;;;31.60;67.10;;;;;;5095050;28;19908;-64
2022/08/16 12:50:07;;;;;;;;;;;31.70;68.30;;;;;;5114829;28;19915;-64
2022/08/16 12:52:32;;;;;;;;;;;31.40;69.00;;;;;;5105229;28;19999;-65
2022/08/16 12:54:58;;;;;;;;;;;31.60;68.40;;;;;;5094842;28;19916;-65
2022/08/16 12:57:24;;;;;;;;;;;32.00;68.10;;;;;;5094269;28;19920;-65
2022/08/16 12:59:50;;;;;;;;;;;32.20;68.00;;;;;;5094809;28;19908;-65
2022/08/16 13:02:16;;;;;;;;;;;32.40;67.90;;;;;;5076572;28;19908;-65
2022/08/16 13:04:41;;;;;;;;;;;32.00;67.50;;;;;;5098960;28;19957;-65
2022/08/16 13:07:07;;;;;;;;;;;31.60;67.20;;;;;;5114519;28;19998;-65
2022/08/16 13:09:33;;;;;;;;;;;31.60;68.50;;;;;;5114807;28;20381;-65
2022/08/16 13:12:02;;;;;;;;;;;32.10;67.80;;;;;;5107753;28;19919;-65
2022/08/16 13:14:31;;;;;;;;;;;32.30;65.40;;;;;;5094027;28;19909;-65
2022/08/16 13:16:57;;;;;;;;;;;32.20;64.60;;;;;;5094173;28;20006;-65
2022/08/16 13:19:23;;;;;;;;;;;32.00;66.20;;;;;;5094148;28;20360;-65
2022/08/16 13:21:48;;;;;;;;;;;32.00;67.60;;;;;;5098872;28;19964;-64
2022/08/16 13:24:14;;;;;;;;;;;31.60;66.70;;;;;;5096575;28;20381;-65
2022/08/16 13:26:39;;;;;;;;;;;31.50;67.10;;;;;;5114232;28;19911;-64
2022/08/16 13:29:05;;;;;;;;;;;31.40;67.40;;;;;;5114248;28;19907;-64
2022/08/16 13:31:30;;;;;;;;;;;31.60;65.70;;;;;;5093714;28;19908;-65
2022/08/16 13:33:56;;;;;;;;;;;31.70;65.60;;;;;;5094041;28;20282;-64
2022/08/16 13:36:21;;;;;;;;;;;31.60;66.10;;;;;;5110332;28;19926;-65
2022/08/16 13:38:47;;;;;;;;;;;31.70;66.70;;;;;;5114212;28;20019;-65
2022/08/16 13:41:13;;;;;;;;;;;31.70;65.80;;;;;;5095981;28;19911;-65
2022/08/16 13:43:39;;;;;;;;;;;31.80;67.50;;;;;;5095177;28;19930;-65
2022/08/16 13:46:05;;;;;;;;;;;31.50;67.00;;;;;;5112094;28;19934;-64
2022/08/16 13:48:31;;;;;;;;;;;31.90;67.80;;;;;;5113964;28;19961;-64
2022/08/16 13:50:57;;;;;;;;;;;32.00;67.30;;;;;;5095663;28;19908;-64
2022/08/16 13:53:24;;;;;;;;;;;31.70;66.00;;;;;;5099923;28;19919;-64
2022/08/16 13:55:49;;;;;;;;;;;31.60;68.10;;;;;;5093636;28;20000;-64
2022/08/16 13:58:15;;;;;;;;;;;31.90;66.40;;;;;;5075251;28;19916;-64
2022/08/16 14:00:40;;;;;;;;;;;32.00;65.40;;;;;;5093782;28;19915;-64
2022/08/16 14:03:07;;;;;;;;;;;32.40;63.80;;;;;;5100369;28;20057;-64
2022/08/16 14:05:33;;;;;;;;;;;32.50;62.70;;;;;;5113437;28;19908;-63
2022/08/16 14:07:58;;;;;;;;;;;32.20;63.30;;;;;;5113800;28;19912;-64
2022/08/16 14:10:24;;;;;;;;;;;32.30;64.00;;;;;;5114088;28;19915;-64
2022/08/16 14:12:50;;;;;;;;;;;32.00;64.90;;;;;;5109206;28;19916;-64
2022/08/16 14:15:17;;;;;;;;;;;31.80;64.90;;;;;;5093331;28;19986;-64